Time;durP1;ratioP1;P1;durP2;ratioP2;P2;SDS_P1;SDS_P2;PMS_P1;PMS_P2;Temp;Humidity;BMP_temperature;BMP_pressure;BME280_temperature;BME280_humidity;BME280_pressure;Samples;Min_cycle;Max_cycle;Signal;HPM_P1;HPM_P2
2023/12/29 00:00:45;;;;;;;;;1.00;1.00;;;;;-144.24;100.00;104700.84;5078546;28;68883;-70
2023/12/29 00:03:10;;;;;;;;;5.67;1.00;;;;;-144.24;100.00;104887.84;5077759;28;68571;-70
2023/12/29 00:05:36;;;;;;;;;0.33;0.00;;;;;-144.24;100.00;104696.78;5078566;28;67132;-69
2023/12/29 00:08:01;;;;;;;;;3.33;2.33;;;;;-144.24;100.00;104556.56;5079220;28;45258;-70
2023/12/29 00:10:27;;;;;;;;;1.00;1.00;;;;;-144.24;100.00;104528.09;5078711;27;45431;-70
2023/12/29 00:12:52;;;;;;;;;1.00;1.00;;;;;-144.24;100.00;104526.06;5078731;28;61433;-71
2023/12/29 00:15:18;;;;;;;;;1.00;1.00;;;;;-144.24;100.00;104326.88;5078043;28;65246;-70
2023/12/29 00:17:44;;;;;;;;;1.00;1.00;;;;;-144.24;100.00;104148.06;5079356;28;45534;-70
2023/12/29 00:20:09;;;;;;;;;3.00;1.00;;;;;-144.24;100.00;104209.03;5078817;28;46374;-71
2023/12/29 00:22:35;;;;;;;;;2.00;2.00;;;;;-144.24;100.00;104024.09;5079208;28;45321;-70
2023/12/29 00:25:00;;;;;;;;;1.33;1.00;;;;;-144.24;100.00;104117.56;5078048;28;66221;-70
2023/12/29 00:27:25;;;;;;;;;2.33;1.67;;;;;-144.24;100.00;104022.06;5079239;28;45305;-69
2023/12/29 00:29:51;;;;;;;;;2.00;1.00;;;;;-144.24;100.00;103969.22;5078670;28;46378;-70
2023/12/29 00:32:16;;;;;;;;;5.00;2.00;;;;;-144.24;100.00;103987.50;5075128;28;70038;-69
2023/12/29 00:34:41;;;;;;;;;2.33;1.00;;;;;-144.24;100.00;104007.84;5078415;28;45491;-70
2023/12/29 00:37:08;;;;;;;;;3.00;1.00;;;;;-144.24;100.00;103999.69;5078293;28;55895;-70
2023/12/29 00:39:38;;;;;;;;;4.00;2.00;;;;;-144.24;100.00;103912.31;5078409;27;47233;-70
2023/12/29 00:42:04;;;;;;;;;5.67;1.00;;;;;-144.24;100.00;104018.00;5076410;28;45462;-70
2023/12/29 00:44:30;;;;;;;;;1.67;1.67;;;;;-144.24;100.00;104009.88;5077144;28;45357;-70
2023/12/29 00:46:55;;;;;;;;;2.67;2.00;;;;;-144.24;100.00;104099.28;5077211;27;59734;-69
2023/12/29 00:49:20;;;;;;;;;3.00;1.00;;;;;-144.24;100.00;104186.66;5078196;28;46207;-71
2023/12/29 00:51:47;;;;;;;;;1.67;1.67;;;;;-144.24;100.00;104127.72;5069114;28;67675;-70
2023/12/29 00:54:12;;;;;;;;;2.00;1.00;;;;;-144.24;100.00;104209.03;5070912;27;45476;-70
2023/12/29 00:56:38;;;;;;;;;2.67;1.33;;;;;-144.24;100.00;104312.66;5077729;28;60879;-71
2023/12/29 00:59:03;;;;;;;;;2.00;1.00;;;;;-144.24;100.00;104127.72;5072807;27;71735;-70
2023/12/29 01:01:32;;;;;;;;;3.00;1.33;;;;;-144.24;100.00;104257.78;5074835;28;66654;-70
2023/12/29 01:03:58;;;;;;;;;1.67;0.33;;;;;-144.24;100.00;104062.69;5072362;28;45544;-70
2023/12/29 01:06:23;;;;;;;;;3.00;1.00;;;;;-144.24;100.00;104229.34;5073757;28;63821;-69
2023/12/29 01:08:48;;;;;;;;;5.67;1.00;;;;;-144.24;100.00;104353.31;5066086;28;70159;-71
2023/12/29 01:11:14;;;;;;;;;2.00;1.00;;;;;-144.24;100.00;104209.03;5054982;27;45548;-69
2023/12/29 01:13:39;;;;;;;;;1.67;1.67;;;;;-144.24;100.00;104365.50;5077762;28;45488;-70
2023/12/29 01:16:04;;;;;;;;;3.00;2.00;;;;;-144.24;100.00;104308.59;5039113;28;55653;-70
2023/12/29 01:18:31;;;;;;;;;1.00;1.00;;;;;-144.24;100.00;104117.56;5077256;28;46285;-70
2023/12/29 01:20:57;;;;;;;;;4.33;1.00;;;;;-144.24;100.00;104253.72;5076951;28;45348;-69
2023/12/29 01:23:22;;;;;;;;;1.00;0.00;;;;;-144.24;100.00;104381.75;5074698;28;45538;-70
2023/12/29 01:25:47;;;;;;;;;4.00;1.67;;;;;-144.24;100.00;104426.47;5077433;28;45474;-70
2023/12/29 01:28:13;;;;;;;;;2.33;0.33;;;;;-144.24;100.00;104314.69;5072437;28;46543;-70
2023/12/29 01:30:38;;;;;;;;;2.33;1.00;;;;;-144.24;100.00;104223.25;5078064;28;45479;-70
2023/12/29 01:33:03;;;;;;;;;2.00;2.00;;;;;-144.24;100.00;104176.50;5072742;28;61808;-70
2023/12/29 01:35:29;;;;;;;;;2.00;1.00;;;;;-144.24;100.00;104333.00;5077773;28;45278;-70
2023/12/29 01:37:56;;;;;;;;;3.33;2.00;;;;;-144.24;100.00;104245.59;5075268;28;45719;-71
2023/12/29 01:40:22;;;;;;;;;2.00;1.00;;;;;-144.24;100.00;104072.84;5074494;28;45492;-72
2023/12/29 01:42:47;;;;;;;;;2.00;0.33;;;;;-144.24;100.00;103955.00;5072282;28;45226;-69
2023/12/29 01:45:23;;;;;;;;;3.67;2.00;;;;;-144.24;100.00;104068.78;5076335;28;59616;-70
2023/12/29 01:47:49;;;;;;;;;2.67;1.00;;;;;-144.24;100.00;103877.78;5070203;28;47560;-71
2023/12/29 01:50:15;;;;;;;;;1.67;1.00;;;;;-144.24;100.00;103904.19;5076729;28;45575;-71
2023/12/29 01:52:42;;;;;;;;;1.00;1.00;;;;;-144.24;100.00;103887.94;5074689;28;45470;-69
2023/12/29 01:55:09;;;;;;;;;3.00;0.33;;;;;-144.24;100.00;103711.16;5058893;28;62943;-72
2023/12/29 01:57:36;;;;;;;;;0.67;0.67;;;;;-144.24;100.00;103867.63;5054943;28;46793;-70
2023/12/29 02:00:02;;;;;;;;;0.00;0.00;;;;;-144.24;100.00;103784.28;5059621;28;46179;-70
2023/12/29 02:02:27;;;;;;;;;4.67;1.00;;;;;-144.24;100.00;103904.19;5040995;28;45444;-70
2023/12/29 02:04:52;;;;;;;;;1.33;0.33;;;;;-144.24;100.00;103991.56;5076738;28;66619;-70
2023/12/29 02:07:18;;;;;;;;;0.00;0.00;;;;;-144.24;100.00;104026.13;5074950;28;46527;-70
2023/12/29 02:09:44;;;;;;;;;1.00;1.00;;;;;-144.24;100.00;103936.72;5061995;28;65135;-71
2023/12/29 02:12:10;;;;;;;;;0.67;0.67;;;;;-144.24;100.00;104026.13;5063750;27;50821;-70
2023/12/29 02:14:35;;;;;;;;;2.33;1.67;;;;;-144.24;100.00;104048.47;5076723;28;45432;-71
2023/12/29 02:17:30;;;;;;;;;3.00;0.33;;;;;-144.24;100.00;103841.19;5073387;28;47273;-70
2023/12/29 02:19:55;;;;;;;;;1.00;1.00;;;;;-144.24;100.00;104038.31;5056762;28;45471;-69
2023/12/29 02:22:22;;;;;;;;;2.00;1.00;;;;;-144.24;100.00;104076.94;5073216;27;66693;-70
2023/12/29 02:24:48;;;;;;;;;3.00;1.00;;;;;-144.24;100.00;104229.34;5075269;28;45520;-72
2023/12/29 02:27:26;;;;;;;;;2.00;0.33;;;;;-144.24;100.00;104253.72;5073787;28;47351;-70
2023/12/29 02:30:05;;;;;;;;;3.00;1.00;;;;;-144.24;100.00;104389.91;5058534;28;45275;-70
2023/12/29 02:32:33;;;;;;;;;3.67;2.00;;;;;-144.24;100.00;104456.97;5070373;27;45480;-70
2023/12/29 02:35:00;;;;;;;;;4.00;1.00;;;;;-144.24;100.00;104349.25;5075148;28;45527;-69
2023/12/29 02:37:26;;;;;;;;;2.00;0.00;;;;;-144.24;100.00;104235.44;5057108;28;45321;-71
2023/12/29 02:39:52;;;;;;;;;2.67;2.00;;;;;-144.24;100.00;104229.34;5058454;28;45303;-69
2023/12/29 02:42:17;;;;;;;;;2.33;1.00;;;;;-144.24;100.00;104333.00;5177022;22;46179;-70
2023/12/29 02:44:43;;;;;;;;;4.00;0.00;;;;;-144.24;100.00;104377.69;5074771;27;45500;-69
2023/12/29 02:47:08;;;;;;;;;1.00;0.67;;;;;-144.24;100.00;104316.72;5072515;27;58983;-71
2023/12/29 02:49:33;;;;;;;;;4.00;1.00;;;;;-144.24;100.00;104406.16;5075231;28;67704;-70
2023/12/29 02:51:59;;;;;;;;;5.00;1.00;;;;;-144.24;100.00;104385.81;5074742;28;65855;-70
2023/12/29 02:54:24;;;;;;;;;3.33;0.00;;;;;-144.24;100.00;104582.97;5073522;28;61799;-71
2023/12/29 02:56:49;;;;;;;;;3.00;2.00;;;;;-144.24;100.00;104698.81;5068407;28;71361;-70
2023/12/29 02:59:14;;;;;;;;;6.00;1.00;;;;;-144.24;100.00;104641.91;5075612;28;72689;-71
2023/12/29 03:01:40;;;;;;;;;2.33;1.00;;;;;-144.24;100.00;104853.31;5059037;27;61690;-71
2023/12/29 03:04:05;;;;;;;;;4.00;1.00;;;;;-144.24;100.00;104814.69;5076544;28;46266;-70
2023/12/29 03:06:31;;;;;;;;;4.00;1.00;;;;;-144.24;100.00;105028.09;5075336;28;70554;-70
2023/12/29 03:08:56;;;;;;;;;2.67;1.00;;;;;-144.24;100.00;105170.41;5075890;28;45507;-71
2023/12/29 03:11:21;;;;;;;;;1.67;0.67;;;;;-144.24;100.00;105060.63;5076849;28;45304;-70
2023/12/29 03:13:47;;;;;;;;;4.33;1.67;;;;;-144.24;100.00;105054.53;5065379;27;45287;-70
2023/12/29 03:16:12;;;;;;;;;4.33;2.00;;;;;-144.24;100.00;105044.38;5045427;28;72472;-70
2023/12/29 03:18:39;;;;;;;;;2.00;0.00;;;;;-144.24;100.00;105162.25;5075464;28;51772;-71
2023/12/29 03:21:05;;;;;;;;;0.67;0.67;;;;;-144.24;100.00;105068.75;5070335;28;45425;-71
2023/12/29 03:23:31;;;;;;;;;2.67;2.00;;;;;-144.24;100.00;105174.47;5072192;28;45601;-71
2023/12/29 03:25:56;;;;;;;;;5.00;0.00;;;;;-144.24;100.00;105184.63;5074243;28;73374;-70
2023/12/29 03:28:21;;;;;;;;;1.00;1.00;;;;;-144.24;100.00;104932.56;5073707;28;69545;-69
2023/12/29 03:30:47;;;;;;;;;4.00;1.00;;;;;-144.24;100.00;104995.59;5076573;28;54676;-69
2023/12/29 03:33:12;;;;;;;;;0.00;0.00;;;;;-144.24;100.00;104879.72;5078224;28;60521;-69
2023/12/29 03:35:37;;;;;;;;;0.67;0.00;;;;;-144.24;100.00;104940.69;5074984;28;75334;-70
2023/12/29 03:38:03;;;;;;;;;3.33;0.33;;;;;-144.24;100.00;105028.09;5074794;27;68657;-71
2023/12/29 03:40:28;;;;;;;;;2.67;1.00;;;;;-144.24;100.00;105058.59;5077312;27;45360;-69
2023/12/29 03:42:53;;;;;;;;;1.00;1.00;;;;;-144.24;100.00;105154.13;5074024;27;63043;-71
2023/12/29 03:45:19;;;;;;;;;3.33;1.00;;;;;-144.24;100.00;105247.63;5076841;28;72447;-70
2023/12/29 03:47:44;;;;;;;;;2.00;1.00;;;;;-144.24;100.00;105253.75;5073641;27;45670;-69
2023/12/29 03:50:09;;;;;;;;;2.67;1.00;;;;;-144.24;100.00;105357.41;5077115;28;66483;-70
2023/12/29 03:52:34;;;;;;;;;3.67;0.00;;;;;-144.24;100.00;105314.72;5078872;27;60455;-70
2023/12/29 03:55:00;;;;;;;;;2.00;1.00;;;;;-144.24;100.00;105367.56;5059909;27;68299;-70
2023/12/29 03:57:25;;;;;;;;;0.00;0.00;;;;;-144.24;100.00;105265.94;5076655;27;71698;-71
2023/12/29 03:59:50;;;;;;;;;5.67;2.00;;;;;-144.24;100.00;105257.81;5078323;28;45319;-70
2023/12/29 04:02:17;;;;;;;;;2.00;0.00;;;;;-144.24;100.00;105725.38;5078858;27;49073;-71
2023/12/29 04:04:43;;;;;;;;;6.00;0.33;;;;;-144.24;100.00;105615.59;5079156;27;45625;-69
2023/12/29 04:07:08;;;;;;;;;1.33;1.00;;;;;-144.24;100.00;105603.38;5074928;27;55918;-71
2023/12/29 04:09:33;;;;;;;;;2.00;0.33;;;;;-144.24;100.00;105751.81;5078758;28;64943;-69
2023/12/29 04:11:59;;;;;;;;;2.00;0.00;;;;;-144.24;100.00;105790.44;5076348;28;64290;-71
2023/12/29 04:14:24;;;;;;;;;1.00;1.00;;;;;-144.24;100.00;105625.75;5069212;27;47346;-70
2023/12/29 04:16:49;;;;;;;;;4.00;2.00;;;;;-144.24;100.00;105729.44;5077608;27;70580;-71
2023/12/29 04:19:14;;;;;;;;;4.00;0.33;;;;;-144.24;100.00;105737.56;5080821;27;61562;-70
2023/12/29 04:21:40;;;;;;;;;8.00;0.00;;;;;-144.24;100.00;105936.81;5077914;28;65443;-69
2023/12/29 04:24:05;;;;;;;;;2.00;1.00;;;;;-144.24;100.00;106003.91;5076076;28;45658;-72
2023/12/29 04:26:36;;;;;;;;;8.67;1.00;;;;;-144.24;100.00;106003.91;5070601;27;45480;-71
2023/12/29 04:29:01;;;;;;;;;5.33;2.00;;;;;-144.24;100.00;106172.66;5065357;27;45400;-69
2023/12/29 04:31:26;;;;;;;;;4.33;0.33;;;;;-144.24;100.00;106184.84;5078884;27;45496;-70
2023/12/29 04:33:52;;;;;;;;;0.00;0.00;;;;;-144.24;100.00;106544.75;5068160;28;74594;-71
2023/12/29 04:36:17;;;;;;;;;1.00;0.00;;;;;-144.24;100.00;106609.84;5076301;27;68414;-70
2023/12/29 04:38:42;;;;;;;;;1.00;0.00;;;;;-144.24;100.00;106986.03;5073524;28;59164;-69
2023/12/29 04:41:08;;;;;;;;;4.67;1.00;;;;;-144.24;100.00;106870.13;5072396;27;65106;-72
2023/12/29 04:43:33;;;;;;;;;0.67;0.67;;;;;-144.24;100.00;107144.66;5057616;28;48381;-70
2023/12/29 04:45:58;;;;;;;;;1.00;1.00;;;;;-144.24;100.00;107156.88;5077193;27;68007;-70
2023/12/29 04:48:24;;;;;;;;;3.67;0.00;;;;;-144.24;100.00;107223.97;5081089;27;45440;-71
2023/12/29 04:50:49;;;;;;;;;1.67;1.00;;;;;-144.24;100.00;107441.59;5084588;27;60101;-69
2023/12/29 04:53:14;;;;;;;;;1.67;1.00;;;;;-144.24;100.00;107311.44;5078158;27;46776;-72
2023/12/29 04:55:40;;;;;;;;;1.00;1.00;;;;;-144.24;100.00;107388.72;5077925;28;68159;-70
2023/12/29 04:58:06;;;;;;;;;2.67;0.00;;;;;-144.24;100.00;107466.00;5077792;28;66386;-71
2023/12/29 05:00:31;;;;;;;;;1.00;1.00;;;;;-144.24;100.00;107461.94;5078490;27;45658;-70
2023/12/29 05:02:56;;;;;;;;;4.00;1.00;;;;;-144.24;100.00;107567.72;5078864;27;75832;-71
2023/12/29 05:05:21;;;;;;;;;2.00;1.00;;;;;-144.24;100.00;107396.84;5077524;27;65664;-70
2023/12/29 05:07:47;;;;;;;;;1.00;1.00;;;;;-144.24;100.00;107405.00;5077414;28;66395;-70
2023/12/29 05:10:12;;;;;;;;;3.67;0.67;;;;;-144.24;100.00;107423.31;5078368;28;45286;-70
2023/12/29 05:12:37;;;;;;;;;4.33;1.00;;;;;-144.24;100.00;107671.44;5077054;28;72679;-71
2023/12/29 05:15:04;;;;;;;;;2.00;0.00;;;;;-144.24;100.00;107525.00;5078561;28;45515;-69
2023/12/29 05:17:29;;;;;;;;;2.00;1.00;;;;;-144.24;100.00;107466.00;5059981;28;45428;-70
2023/12/29 05:19:55;;;;;;;;;1.33;0.00;;;;;-144.24;100.00;107579.91;5078663;28;45310;-70
2023/12/29 05:22:20;;;;;;;;;0.67;0.33;;;;;-144.24;100.00;107486.34;5077053;27;64557;-69
2023/12/29 05:24:45;;;;;;;;;4.00;1.67;;;;;-144.24;100.00;107712.13;5078044;27;45369;-70
2023/12/29 05:27:11;;;;;;;;;1.00;1.00;;;;;-144.24;100.00;107571.78;5077282;28;63812;-70
2023/12/29 05:29:36;;;;;;;;;2.00;1.00;;;;;-144.24;100.00;107494.50;5078358;28;45540;-70
2023/12/29 05:32:02;;;;;;;;;2.00;0.33;;;;;-144.24;100.00;107563.63;5076343;27;72429;-70
2023/12/29 05:34:28;;;;;;;;;1.00;1.00;;;;;-144.24;100.00;107510.75;5077731;28;45358;-70
2023/12/29 05:36:53;;;;;;;;;0.00;0.00;;;;;-144.24;100.00;107508.72;5077671;28;45534;-71
2023/12/29 05:39:18;;;;;;;;;2.33;1.00;;;;;-144.24;100.00;107555.50;5077360;28;67166;-69
2023/12/29 05:41:44;;;;;;;;;3.67;1.00;;;;;-144.24;100.00;107455.84;5077336;28;45247;-70
2023/12/29 05:44:09;;;;;;;;;1.00;1.00;;;;;-144.24;100.00;107095.88;5077223;27;73132;-70
2023/12/29 05:46:34;;;;;;;;;2.00;0.00;;;;;-144.24;100.00;107181.28;5077308;27;45598;-71
2023/12/29 05:49:00;;;;;;;;;2.00;0.00;;;;;-144.24;100.00;107181.28;5076973;28;66070;-70
2023/12/29 05:51:25;;;;;;;;;3.00;0.00;;;;;-144.24;100.00;107038.91;5076213;27;47230;-70
2023/12/29 05:53:51;;;;;;;;;0.00;0.00;;;;;-144.24;100.00;107323.66;5075009;27;45531;-69
2023/12/29 05:56:16;;;;;;;;;6.00;0.33;;;;;-144.24;100.00;107327.72;5074278;28;45495;-72
2023/12/29 05:58:42;;;;;;;;;3.00;1.67;;;;;-144.24;100.00;107455.84;5074571;28;45414;-71
2023/12/29 06:01:08;;;;;;;;;1.33;1.00;;;;;-144.24;100.00;107590.09;5076759;28;46737;-70
2023/12/29 06:03:33;;;;;;;;;0.00;0.00;;;;;-144.24;100.00;107398.88;5079825;27;45449;-69
2023/12/29 06:05:58;;;;;;;;;3.00;0.67;;;;;-144.24;100.00;107437.53;5076421;27;67572;-70
2023/12/29 06:08:24;;;;;;;;;0.00;0.00;;;;;-144.24;100.00;107234.16;5076657;28;66655;-69
2023/12/29 06:10:49;;;;;;;;;0.67;0.67;;;;;-144.24;100.00;107472.13;5075435;28;66925;-69
2023/12/29 06:13:15;;;;;;;;;2.00;0.33;;;;;-144.24;100.00;107781.28;5076446;28;69337;-71
2023/12/29 06:15:40;;;;;;;;;1.00;1.00;;;;;-144.24;100.00;107874.84;5077733;28;45525;-69
2023/12/29 06:18:05;;;;;;;;;2.00;0.00;;;;;-144.24;100.00;108066.06;5076616;28;65135;-70
2023/12/29 06:20:30;;;;;;;;;1.00;0.00;;;;;-144.24;100.00;108112.84;5075934;28;73129;-71
2023/12/29 06:22:56;;;;;;;;;0.00;0.00;;;;;-144.24;100.00;108428.16;5057946;28;72945;-71
2023/12/29 06:25:21;;;;;;;;;2.00;0.67;;;;;-144.24;100.00;108474.94;5076066;28;68109;-70
2023/12/29 06:27:47;;;;;;;;;0.00;0.00;;;;;-144.24;100.00;108582.78;5077420;27;45312;-70
2023/12/29 06:30:12;;;;;;;;;0.00;0.00;;;;;-144.24;100.00;108686.53;5076700;27;45742;-69
2023/12/29 06:32:37;;;;;;;;;3.33;1.33;;;;;-144.24;100.00;108887.94;5077225;28;45463;-70
2023/12/29 06:35:04;;;;;;;;;3.33;1.00;;;;;-144.24;100.00;109213.50;5076445;27;45222;-70
2023/12/29 06:37:29;;;;;;;;;2.00;0.67;;;;;-144.24;100.00;109168.75;5077173;27;45584;-70
2023/12/29 06:39:54;;;;;;;;;1.67;0.00;;;;;-144.24;100.00;109494.31;5077015;28;45742;-70
2023/12/29 06:42:20;;;;;;;;;2.67;0.67;;;;;-144.24;100.00;109551.28;5076428;27;54313;-70
2023/12/29 06:44:46;;;;;;;;;0.00;0.00;;;;;-144.24;100.00;109492.28;5077132;28;45212;-70
2023/12/29 06:47:11;;;;;;;;;0.00;0.00;;;;;-144.24;100.00;109653.03;5077507;27;45714;-69
2023/12/29 06:49:36;;;;;;;;;0.33;0.00;;;;;-144.24;100.00;109638.78;5070141;28;73196;-71
2023/12/29 06:52:02;;;;;;;;;0.00;0.00;;;;;-144.24;100.00;109667.28;5053527;28;45500;-70
2023/12/29 06:54:27;;;;;;;;;0.67;0.67;;;;;-144.24;100.00;109663.22;5075177;28;45360;-70
2023/12/29 06:56:53;;;;;;;;;1.67;0.00;;;;;-144.24;100.00;109661.19;5067758;28;63841;-70
2023/12/29 06:59:19;;;;;;;;;3.00;0.00;;;;;-144.24;100.00;109844.31;5069501;28;45615;-70
2023/12/29 07:01:45;;;;;;;;;0.00;0.00;;;;;-144.24;100.00;109793.44;5071900;27;45519;-70
2023/12/29 07:04:11;;;;;;;;;0.67;0.00;;;;;-144.24;100.00;109653.03;5072275;28;45778;-69
2023/12/29 07:06:36;;;;;;;;;0.00;0.00;;;;;-144.24;100.00;109335.59;5073000;28;45554;-69
2023/12/29 07:09:02;;;;;;;;;3.33;0.33;;;;;-144.24;100.00;109518.72;5057216;28;47413;-69
2023/12/29 07:11:28;;;;;;;;;0.33;0.33;;;;;-144.24;100.00;109581.81;5070827;28;72926;-70
2023/12/29 07:13:53;;;;;;;;;1.00;1.00;;;;;-144.24;100.00;109663.22;5073645;28;45444;-71
2023/12/29 07:16:20;;;;;;;;;1.00;0.00;;;;;-144.24;100.00;109467.84;5075141;28;67659;-69
2023/12/29 07:18:48;;;;;;;;;4.67;0.00;;;;;-144.24;100.00;109370.19;5073624;28;47363;-69
2023/12/29 07:21:14;;;;;;;;;0.67;0.67;;;;;-144.24;100.00;109372.22;5072273;28;52150;-70
2023/12/29 07:23:40;;;;;;;;;1.00;1.00;;;;;-144.24;100.00;109319.31;5071462;28;45603;-69
2023/12/29 07:26:06;;;;;;;;;0.00;0.00;;;;;-144.24;100.00;109473.97;5072535;28;45615;-69
2023/12/29 07:28:32;;;;;;;;;2.00;0.00;;;;;-144.24;100.00;109276.59;5074268;28;72973;-69
2023/12/29 07:30:57;;;;;;;;;0.00;0.00;;;;;-144.24;100.00;109392.56;5072878;28;45434;-68
2023/12/29 07:33:23;;;;;;;;;0.00;0.00;;;;;-144.24;100.00;109130.06;5072480;28;45393;-70
2023/12/29 07:35:49;;;;;;;;;2.33;0.00;;;;;-144.24;100.00;109044.63;5070480;28;45555;-69
2023/12/29 07:38:14;;;;;;;;;2.67;0.33;;;;;-144.24;100.00;108991.72;5066831;27;45733;-68
2023/12/29 07:40:40;;;;;;;;;0.00;0.00;;;;;-144.24;100.00;108892.03;5076268;27;70931;-70
2023/12/29 07:43:05;;;;;;;;;1.33;0.00;;;;;-144.24;100.00;108670.25;5070943;28;45427;-67
2023/12/29 07:45:30;;;;;;;;;1.33;0.00;;;;;-144.24;100.00;108710.94;5063980;28;45236;-69
2023/12/29 07:47:57;;;;;;;;;0.67;0.00;;;;;-144.24;100.00;108603.13;5065552;27;46184;-66
2023/12/29 07:50:22;;;;;;;;;0.00;0.00;;;;;-144.24;100.00;108588.88;5069109;28;45432;-69
2023/12/29 07:52:47;;;;;;;;;2.67;0.00;;;;;-144.24;100.00;108348.81;5075066;28;45936;-68
2023/12/29 07:55:13;;;;;;;;;1.00;1.00;;;;;-144.24;100.00;108365.09;5064577;28;65917;-67
2023/12/29 07:57:38;;;;;;;;;1.33;0.00;;;;;-144.24;100.00;108149.47;5071581;27;73607;-69
2023/12/29 08:00:06;;;;;;;;;0.00;0.00;;;;;-144.24;100.00;108074.19;5078949;27;45389;-68
2023/12/29 08:02:31;;;;;;;;;1.67;0.00;;;;;-144.24;100.00;108015.19;5080163;27;45447;-68
2023/12/29 08:04:56;;;;;;;;;4.67;1.00;;;;;-144.24;100.00;107775.19;5078337;27;45348;-68
2023/12/29 08:07:22;;;;;;;;;2.67;0.00;;;;;-144.24;100.00;107824.00;5068560;28;73804;-68
2023/12/29 08:09:47;;;;;;;;;0.67;0.00;;;;;-144.24;100.00;107714.16;5073692;28;45284;-68
2023/12/29 08:12:13;;;;;;;;;2.00;0.33;;;;;-144.24;100.00;107533.13;5072486;28;60908;-68
2023/12/29 08:14:39;;;;;;;;;1.67;0.00;;;;;-144.24;100.00;107364.31;5076797;27;45506;-68
2023/12/29 08:17:04;;;;;;;;;2.00;0.00;;;;;-144.24;100.00;107390.75;5067575;27;46408;-68
2023/12/29 08:19:29;;;;;;;;;2.00;0.00;;;;;-144.24;100.00;107364.31;5077395;27;67997;-68
2023/12/29 08:21:55;;;;;;;;;2.00;0.67;;;;;-144.24;100.00;107285.00;5073478;28;67994;-68
2023/12/29 08:24:20;;;;;;;;;0.00;0.00;;;;;-144.24;100.00;107287.03;5072803;28;65472;-67
2023/12/29 08:26:46;;;;;;;;;2.33;0.00;;;;;-144.24;100.00;107152.81;5071435;28;46720;-68
2023/12/29 08:29:15;;;;;;;;;0.00;0.00;;;;;-144.24;100.00;107059.25;5066885;28;45541;-67
2023/12/29 08:31:41;;;;;;;;;0.00;0.00;;;;;-144.24;100.00;106904.69;5073148;28;45692;-68
2023/12/29 08:34:06;;;;;;;;;0.00;0.00;;;;;-144.24;100.00;106908.75;5078043;28;45209;-68
2023/12/29 08:36:32;;;;;;;;;0.33;0.00;;;;;-144.24;100.00;106898.59;5067777;28;46488;-67
2023/12/29 08:38:58;;;;;;;;;0.00;0.00;;;;;-144.24;100.00;106979.94;5074641;28;70401;-69
2023/12/29 08:41:23;;;;;;;;;2.67;0.00;;;;;-144.24;100.00;106868.09;5073465;28;45254;-68
2023/12/29 08:43:48;;;;;;;;;1.00;0.00;;;;;-144.24;100.00;107016.53;5069075;28;65411;-68
2023/12/29 08:46:14;;;;;;;;;1.00;0.00;;;;;-144.24;100.00;106644.41;5077162;27;71017;-68
2023/12/29 08:48:39;;;;;;;;;2.00;0.00;;;;;-144.24;100.00;106815.22;5074475;27;45369;-69
2023/12/29 08:51:05;;;;;;;;;2.00;0.00;;;;;-144.24;100.00;106762.34;5072349;28;62022;-68
2023/12/29 08:53:33;;;;;;;;;0.00;0.00;;;;;-144.24;100.00;106683.03;5070553;28;45201;-69
2023/12/29 08:55:59;;;;;;;;;1.33;0.00;;;;;-144.24;100.00;106617.97;5072873;28;46747;-68
2023/12/29 08:58:24;;;;;;;;;3.00;1.00;;;;;-144.24;100.00;106302.78;5073191;27;45492;-69
2023/12/29 09:00:49;;;;;;;;;1.00;0.00;;;;;-144.24;100.00;106416.66;5069431;28;66163;-68
2023/12/29 09:03:15;;;;;;;;;2.67;0.67;;;;;-144.24;100.00;106363.78;5075552;27;60021;-68
2023/12/29 09:05:40;;;;;;;;;1.00;0.67;;;;;-144.24;100.00;106349.56;5075634;28;72615;-69
2023/12/29 09:08:06;;;;;;;;;3.67;1.00;;;;;-144.24;100.00;106363.78;5054246;28;71160;-69
2023/12/29 09:10:31;;;;;;;;;3.00;0.00;;;;;-144.24;100.00;106188.94;5067034;28;45599;-68
2023/12/29 09:12:56;;;;;;;;;2.00;0.00;;;;;-144.24;100.00;106103.53;5075840;27;45376;-68
2023/12/29 09:15:23;;;;;;;;;2.00;0.00;;;;;-144.24;100.00;106178.75;5074598;27;73303;-68
2023/12/29 09:17:48;;;;;;;;;1.00;1.00;;;;;-144.24;100.00;106402.41;5073333;28;45539;-69
2023/12/29 09:20:14;;;;;;;;;0.00;0.00;;;;;-144.24;100.00;106146.22;5073995;27;45806;-68
2023/12/29 09:22:40;;;;;;;;;2.67;0.00;;;;;-144.24;100.00;106343.47;5076115;27;45168;-69
2023/12/29 09:25:05;;;;;;;;;4.00;0.00;;;;;-144.24;100.00;106428.84;5076672;28;70305;-69
2023/12/29 09:27:31;;;;;;;;;1.67;0.00;;;;;-144.24;100.00;106392.25;5071427;28;45882;-68
2023/12/29 09:29:56;;;;;;;;;1.00;0.00;;;;;-144.24;100.00;106542.72;5052699;28;45672;-68
2023/12/29 09:32:21;;;;;;;;;2.00;0.67;;;;;-144.24;100.00;106550.88;5058568;28;66656;-69
2023/12/29 09:34:47;;;;;;;;;0.67;0.67;;;;;-144.24;100.00;106475.63;5070284;28;65000;-69
2023/12/29 09:37:12;;;;;;;;;0.67;0.67;;;;;-144.24;100.00;106685.06;5075955;28;45399;-69
2023/12/29 09:39:37;;;;;;;;;3.00;0.33;;;;;-144.24;100.00;106731.84;5073769;28;45635;-68
2023/12/29 09:42:03;;;;;;;;;1.00;1.00;;;;;-144.24;100.00;107051.13;5070953;28;58487;-68
2023/12/29 09:44:31;;;;;;;;;3.00;0.00;;;;;-144.24;100.00;107329.75;5067956;28;46762;-69
2023/12/29 09:47:01;;;;;;;;;0.00;0.00;;;;;-144.24;100.00;107307.38;5068890;27;45515;-69
2023/12/29 09:49:27;;;;;;;;;1.00;1.00;;;;;-144.24;100.00;107645.00;5069361;28;45445;-69
2023/12/29 09:51:53;;;;;;;;;6.67;0.00;;;;;-144.24;100.00;107870.78;5049566;28;45447;-69
2023/12/29 09:54:18;;;;;;;;;4.00;0.00;;;;;-144.24;100.00;108021.31;5072725;28;46439;-69
2023/12/29 09:56:44;;;;;;;;;2.67;0.00;;;;;-144.24;100.00;108269.47;5075179;28;71119;-68
2023/12/29 09:59:11;;;;;;;;;1.33;0.00;;;;;-144.24;100.00;108481.06;5057286;28;63973;-69
2023/12/29 10:01:37;;;;;;;;;1.67;0.00;;;;;-144.24;100.00;108765.88;5076691;27;65435;-68
2023/12/29 10:04:02;;;;;;;;;2.33;1.00;;;;;-144.24;100.00;108985.63;5079787;27;51681;-69
2023/12/29 10:06:31;;;;;;;;;1.67;1.00;;;;;-144.24;100.00;109272.50;5075005;28;45327;-69
2023/12/29 10:08:57;;;;;;;;;2.33;1.00;;;;;-144.24;100.00;109663.22;5046064;28;45531;-69
2023/12/29 10:11:24;;;;;;;;;3.00;0.33;;;;;-144.24;100.00;110147.56;5065203;28;55917;-68
2023/12/29 10:13:51;;;;;;;;;2.00;0.00;;;;;-144.24;100.00;110216.75;5047905;28;45904;-68
2023/12/29 10:16:34;;;;;;;;;1.00;1.00;;;;;-144.24;100.00;110554.63;5077161;28;45366;-68
2023/12/29 10:19:23;;;;;;;;;3.33;0.00;;;;;-144.24;100.00;110729.69;5044375;28;45327;-68
2023/12/29 10:21:58;;;;;;;;;1.33;0.00;;;;;-144.24;100.00;111140.88;5064777;28;46503;-68
2023/12/29 10:24:24;;;;;;;;;3.00;0.00;;;;;-144.24;100.00;111250.81;5059334;27;46586;-68
2023/12/29 10:26:49;;;;;;;;;1.33;0.00;;;;;-144.24;100.00;111379.06;5058808;28;48702;-70
2023/12/29 10:29:15;;;;;;;;;3.67;0.00;;;;;-144.24;100.00;111393.31;5077676;28;45447;-68
2023/12/29 10:31:40;;;;;;;;;0.00;0.00;;;;;-144.24;100.00;111381.09;5058671;28;45744;-69
2023/12/29 10:34:31;;;;;;;;;3.67;0.00;;;;;-144.24;100.00;111515.47;5076511;28;46636;-69
2023/12/29 10:36:58;;;;;;;;;3.00;1.00;;;;;-144.24;100.00;111387.22;5076052;28;45417;-69
2023/12/29 10:39:24;;;;;;;;;2.00;0.00;;;;;-144.24;100.00;111415.72;5076334;28;45292;-68
2023/12/29 10:41:50;;;;;;;;;0.00;0.00;;;;;-144.24;100.00;111588.78;5076672;28;45551;-68
2023/12/29 10:44:16;;;;;;;;;1.00;1.00;;;;;-144.24;100.00;111574.50;5076782;28;47231;-69
2023/12/29 10:46:42;;;;;;;;;0.00;0.00;;;;;-144.24;100.00;111690.56;5060109;28;45433;-68
2023/12/29 10:49:12;;;;;;;;;0.00;0.00;;;;;-144.24;100.00;111865.66;5076824;28;45324;-69
2023/12/29 10:51:38;;;;;;;;;2.00;1.00;;;;;-144.24;100.00;112002.09;5076419;28;45455;-68
2023/12/29 10:54:04;;;;;;;;;6.67;1.33;;;;;-144.24;100.00;112057.06;5058925;28;47815;-68
2023/12/29 10:56:30;;;;;;;;;4.33;1.00;;;;;-144.24;100.00;112148.69;5077163;28;45515;-69